sensor_id;sensor_type;location;lat;lon;timestamp;temperature;humidity
484;DHT22;228;48.922;12.198;2024-01-10T05:01:34;-3.50;71.30
484;DHT22;228;48.922;12.198;2024-01-10T05:04:02;-3.30;70.60
484;DHT22;228;48.922;12.198;2024-01-10T05:06:28;-3.30;70.60
484;DHT22;228;48.922;12.198;2024-01-10T05:08:55;-3.20;70.00
484;DHT22;228;48.922;12.198;2024-01-10T05:11:24;-3.10;69.80
484;DHT22;228;48.922;12.198;2024-01-10T05:13:55;-3.10;69.60
484;DHT22;228;48.922;12.198;2024-01-10T05:16:21;-3.20;69.30
484;DHT22;228;48.922;12.198;2024-01-10T05:18:47;-3.60;69.70
484;DHT22;228;48.922;12.198;2024-01-10T05:21:14;-3.60;71.40
484;DHT22;228;48.922;12.198;2024-01-10T05:23:40;-3.40;71.10
484;DHT22;228;48.922;12.198;2024-01-10T05:26:06;-3.30;70.30
484;DHT22;228;48.922;12.198;2024-01-10T05:28:32;-3.20;69.90
484;DHT22;228;48.922;12.198;2024-01-10T05:30:59;-3.30;69.40
484;DHT22;228;48.922;12.198;2024-01-10T05:33:26;-3.50;70.00
484;DHT22;228;48.922;12.198;2024-01-10T05:35:52;-3.50;71.00
484;DHT22;228;48.922;12.198;2024-01-10T05:38:18;-3.70;71.40
484;DHT22;228;48.922;12.198;2024-01-10T05:40:44;-3.60;72.10
484;DHT22;228;48.922;12.198;2024-01-10T05:43:10;-3.60;72.90
484;DHT22;228;48.922;12.198;2024-01-10T05:45:36;-3.70;71.70
484;DHT22;228;48.922;12.198;2024-01-10T05:48:04;-3.90;72.90
484;DHT22;228;48.922;12.198;2024-01-10T05:50:32;-3.70;72.70
484;DHT22;228;48.922;12.198;2024-01-10T05:52:58;-3.90;72.00
484;DHT22;228;48.922;12.198;2024-01-10T05:55:24;-3.80;72.70
484;DHT22;228;48.922;12.198;2024-01-10T05:57:50;-3.70;73.00
484;DHT22;228;48.922;12.198;2024-01-10T06:00:17;-3.70;72.40
484;DHT22;228;48.922;12.198;2024-01-10T06:02:47;-3.50;71.80
484;DHT22;228;48.922;12.198;2024-01-10T06:05:13;-3.30;71.30
484;DHT22;228;48.922;12.198;2024-01-10T06:07:41;-3.30;70.60
484;DHT22;228;48.922;12.198;2024-01-10T06:10:07;-3.20;68.80
484;DHT22;228;48.922;12.198;2024-01-10T06:12:34;-3.20;68.40
484;DHT22;228;48.922;12.198;2024-01-10T06:15:01;-3.30;67.80
484;DHT22;228;48.922;12.198;2024-01-10T06:17:27;-3.30;68.00
484;DHT22;228;48.922;12.198;2024-01-10T06:19:54;-4.10;70.10
484;DHT22;228;48.922;12.198;2024-01-10T06:22:20;-4.20;71.80
484;DHT22;228;48.922;12.198;2024-01-10T06:24:51;-4.40;73.80
484;DHT22;228;48.922;12.198;2024-01-10T06:27:18;-4.00;73.30
484;DHT22;228;48.922;12.198;2024-01-10T06:29:44;-3.90;71.70
484;DHT22;228;48.922;12.198;2024-01-10T06:32:11;-3.90;71.50
484;DHT22;228;48.922;12.198;2024-01-10T06:34:37;-3.90;71.30
484;DHT22;228;48.922;12.198;2024-01-10T06:37:04;-3.90;71.10
484;DHT22;228;48.922;12.198;2024-01-10T06:39:30;-4.00;71.20
484;DHT22;228;48.922;12.198;2024-01-10T06:41:56;-4.30;71.70
484;DHT22;228;48.922;12.198;2024-01-10T06:44:24;-4.20;72.90
484;DHT22;228;48.922;12.198;2024-01-10T06:46:51;-4.20;73.00
484;DHT22;228;48.922;12.198;2024-01-10T06:49:17;-4.20;72.50
484;DHT22;228;48.922;12.198;2024-01-10T06:51:43;-4.10;73.10
484;DHT22;228;48.922;12.198;2024-01-10T06:54:09;-4.00;72.60
484;DHT22;228;48.922;12.198;2024-01-10T06:56:35;-3.90;72.30
484;DHT22;228;48.922;12.198;2024-01-10T06:59:01;-3.80;72.10
484;DHT22;228;48.922;12.198;2024-01-10T07:01:28;-3.80;71.70
484;DHT22;228;48.922;12.198;2024-01-10T07:03:54;-3.70;71.20
484;DHT22;228;48.922;12.198;2024-01-10T07:06:23;-3.70;70.70
484;DHT22;228;48.922;12.198;2024-01-10T07:08:50;-3.80;70.20
484;DHT22;228;48.922;12.198;2024-01-10T07:11:17;-3.70;71.00
484;DHT22;228;48.922;12.198;2024-01-10T07:13:47;-3.70;71.20
484;DHT22;228;48.922;12.198;2024-01-10T07:16:14;-3.70;70.30
484;DHT22;228;48.922;12.198;2024-01-10T07:18:41;-3.70;71.00
484;DHT22;228;48.922;12.198;2024-01-10T07:21:08;-3.60;71.20
484;DHT22;228;48.922;12.198;2024-01-10T07:45:03;-2.90;69.00
484;DHT22;228;48.922;12.198;2024-01-10T07:54:18;-2.70;69.00
484;DHT22;228;48.922;12.198;2024-01-10T07:56:52;-3.40;70.00
484;DHT22;228;48.922;12.198;2024-01-10T07:59:20;-3.40;71.90
484;DHT22;228;48.922;12.198;2024-01-10T08:01:55;-3.00;72.30
484;DHT22;228;48.922;12.198;2024-01-10T08:04:25;-2.70;71.70
484;DHT22;228;48.922;12.198;2024-01-10T08:07:18;-2.40;71.30
484;DHT22;228;48.922;12.198;2024-01-10T08:17:38;-1.00;67.90
484;DHT22;228;48.922;12.198;2024-01-10T08:20:07;-0.90;66.50
484;DHT22;228;48.922;12.198;2024-01-10T08:22:37;-0.80;67.60
484;DHT22;228;48.922;12.198;2024-01-10T08:25:04;-0.60;66.70
484;DHT22;228;48.922;12.198;2024-01-10T08:27:33;-0.50;66.90
484;DHT22;228;48.922;12.198;2024-01-10T08:30:08;-0.40;67.50
484;DHT22;228;48.922;12.198;2024-01-10T08:35:32;-0.10;67.00
484;DHT22;228;48.922;12.198;2024-01-10T08:41:23;-2.00;73.20
484;DHT22;228;48.922;12.198;2024-01-10T08:43:50;-1.60;74.00
484;DHT22;228;48.922;12.198;2024-01-10T08:46:17;-1.30;72.80
484;DHT22;228;48.922;12.198;2024-01-10T08:49:04;-1.20;71.20
484;DHT22;228;48.922;12.198;2024-01-10T08:51:30;-1.50;73.00
484;DHT22;228;48.922;12.198;2024-01-10T08:53:58;-1.60;73.50
484;DHT22;228;48.922;12.198;2024-01-10T08:56:26;-1.20;72.90
484;DHT22;228;48.922;12.198;2024-01-10T08:58:52;-1.20;72.10
484;DHT22;228;48.922;12.198;2024-01-10T09:01:22;-1.00;71.40
484;DHT22;228;48.922;12.198;2024-01-10T09:04:03;-0.50;71.90
484;DHT22;228;48.922;12.198;2024-01-10T09:06:32;-0.10;69.30
484;DHT22;228;48.922;12.198;2024-01-10T09:09:03;0.30;67.70
484;DHT22;228;48.922;12.198;2024-01-10T09:11:30;-0.30;68.00
484;DHT22;228;48.922;12.198;2024-01-10T09:13:56;0.20;67.40
484;DHT22;228;48.922;12.198;2024-01-10T09:16:25;0.20;67.40
484;DHT22;228;48.922;12.198;2024-01-10T09:18:53;0.80;66.50
484;DHT22;228;48.922;12.198;2024-01-10T09:21:23;0.50;64.70
484;DHT22;228;48.922;12.198;2024-01-10T09:23:50;0.50;65.90
484;DHT22;228;48.922;12.198;2024-01-10T09:26:18;0.80;64.50
484;DHT22;228;48.922;12.198;2024-01-10T09:28:47;1.00;63.00
484;DHT22;228;48.922;12.198;2024-01-10T09:31:14;0.90;63.10
484;DHT22;228;48.922;12.198;2024-01-10T09:33:42;0.70;63.70
484;DHT22;228;48.922;12.198;2024-01-10T09:36:11;0.40;62.80
484;DHT22;228;48.922;12.198;2024-01-10T09:38:38;0.30;65.30
484;DHT22;228;48.922;12.198;2024-01-10T09:41:09;0.80;64.30
484;DHT22;228;48.922;12.198;2024-01-10T09:43:39;1.30;62.80
484;DHT22;228;48.922;12.198;2024-01-10T09:46:08;1.30;60.10
484;DHT22;228;48.922;12.198;2024-01-10T09:48:37;0.60;62.00
484;DHT22;228;48.922;12.198;2024-01-10T09:51:07;1.10;62.70
484;DHT22;228;48.922;12.198;2024-01-10T09:53:35;1.10;61.70
484;DHT22;228;48.922;12.198;2024-01-10T09:56:04;1.30;61.40
484;DHT22;228;48.922;12.198;2024-01-10T09:58:32;1.30;60.30
484;DHT22;228;48.922;12.198;2024-01-10T10:01:06;1.10;61.70
484;DHT22;228;48.922;12.198;2024-01-10T10:03:36;1.20;61.60
484;DHT22;228;48.922;12.198;2024-01-10T10:06:04;0.60;62.80
484;DHT22;228;48.922;12.198;2024-01-10T10:08:37;0.30;64.30
484;DHT22;228;48.922;12.198;2024-01-10T10:11:05;0.80;63.10
484;DHT22;228;48.922;12.198;2024-01-10T10:13:32;0.90;61.30
484;DHT22;228;48.922;12.198;2024-01-10T10:16:04;0.90;61.10
484;DHT22;228;48.922;12.198;2024-01-10T10:18:33;1.00;60.70
484;DHT22;228;48.922;12.198;2024-01-10T10:21:13;1.20;60.70
484;DHT22;228;48.922;12.198;2024-01-10T10:23:59;0.90;60.70
484;DHT22;228;48.922;12.198;2024-01-10T10:26:32;1.30;61.80
484;DHT22;228;48.922;12.198;2024-01-10T10:28:59;1.40;61.80
484;DHT22;228;48.922;12.198;2024-01-10T10:31:26;1.60;60.80
484;DHT22;228;48.922;12.198;2024-01-10T10:33:54;1.80;61.00
484;DHT22;228;48.922;12.198;2024-01-10T10:36:21;1.50;60.30
484;DHT22;228;48.922;12.198;2024-01-10T10:38:48;1.60;61.50
484;DHT22;228;48.922;12.198;2024-01-10T10:41:14;1.60;61.70
484;DHT22;228;48.922;12.198;2024-01-10T10:43:42;1.40;61.10
484;DHT22;228;48.922;12.198;2024-01-10T10:46:09;1.60;61.90
484;DHT22;228;48.922;12.198;2024-01-10T10:48:40;1.80;60.80
484;DHT22;228;48.922;12.198;2024-01-10T10:51:17;2.10;60.20
484;DHT22;228;48.922;12.198;2024-01-10T10:53:47;2.70;59.00
484;DHT22;228;48.922;12.198;2024-01-10T10:56:14;2.60;58.00
484;DHT22;228;48.922;12.198;2024-01-10T10:58:44;2.50;57.90
484;DHT22;228;48.922;12.198;2024-01-10T11:01:13;2.30;58.20
484;DHT22;228;48.922;12.198;2024-01-10T11:03:41;2.20;59.30
484;DHT22;228;48.922;12.198;2024-01-10T11:06:13;2.20;59.00
484;DHT22;228;48.922;12.198;2024-01-10T11:08:45;2.70;58.50
484;DHT22;228;48.922;12.198;2024-01-10T11:18:18;2.90;57.00
484;DHT22;228;48.922;12.198;2024-01-10T11:20:57;3.00;56.60
484;DHT22;228;48.922;12.198;2024-01-10T11:23:54;3.00;55.70
484;DHT22;228;48.922;12.198;2024-01-10T11:26:22;3.50;56.40
484;DHT22;228;48.922;12.198;2024-01-10T11:28:48;3.90;54.30
484;DHT22;228;48.922;12.198;2024-01-10T11:31:14;4.70;53.30
484;DHT22;228;48.922;12.198;2024-01-10T11:33:44;5.80;51.60
484;DHT22;228;48.922;12.198;2024-01-10T11:36:15;6.00;48.00
484;DHT22;228;48.922;12.198;2024-01-10T11:38:47;5.50;48.40
484;DHT22;228;48.922;12.198;2024-01-10T11:41:32;6.10;48.70
484;DHT22;228;48.922;12.198;2024-01-10T11:46:56;8.40;42.90
484;DHT22;228;48.922;12.198;2024-01-10T11:49:24;8.70;41.00
484;DHT22;228;48.922;12.198;2024-01-10T11:52:14;9.10;40.90
484;DHT22;228;48.922;12.198;2024-01-10T11:54:44;8.10;40.30
484;DHT22;228;48.922;12.198;2024-01-10T11:59:44;10.30;37.50
484;DHT22;228;48.922;12.198;2024-01-10T12:02:36;9.70;37.50
484;DHT22;228;48.922;12.198;2024-01-10T12:05:02;10.40;36.80
484;DHT22;228;48.922;12.198;2024-01-10T12:07:29;11.50;35.60
484;DHT22;228;48.922;12.198;2024-01-10T12:09:56;12.30;32.60
484;DHT22;228;48.922;12.198;2024-01-10T12:12:22;12.50;31.60
484;DHT22;228;48.922;12.198;2024-01-10T12:14:50;12.80;32.00
484;DHT22;228;48.922;12.198;2024-01-10T12:17:17;12.10;29.70
484;DHT22;228;48.922;12.198;2024-01-10T12:19:45;11.20;32.50
484;DHT22;228;48.922;12.198;2024-01-10T12:22:13;10.00;33.60
484;DHT22;228;48.922;12.198;2024-01-10T12:24:48;11.00;34.80
484;DHT22;228;48.922;12.198;2024-01-10T12:27:17;10.70;33.10
484;DHT22;228;48.922;12.198;2024-01-10T12:29:47;10.70;34.40
484;DHT22;228;48.922;12.198;2024-01-10T12:32:16;12.20;32.50
484;DHT22;228;48.922;12.198;2024-01-10T12:34:44;12.70;31.00
484;DHT22;228;48.922;12.198;2024-01-10T12:37:10;14.10;30.00
484;DHT22;228;48.922;12.198;2024-01-10T12:39:38;15.50;28.90
484;DHT22;228;48.922;12.198;2024-01-10T12:42:04;14.50;27.00
484;DHT22;228;48.922;12.198;2024-01-10T12:44:30;14.30;27.80
484;DHT22;228;48.922;12.198;2024-01-10T12:46:57;12.60;27.90
484;DHT22;228;48.922;12.198;2024-01-10T12:49:23;11.40;30.20
484;DHT22;228;48.922;12.198;2024-01-10T12:51:49;12.10;31.50
484;DHT22;228;48.922;12.198;2024-01-10T12:54:16;12.30;29.90
484;DHT22;228;48.922;12.198;2024-01-10T12:56:45;13.30;29.90
484;DHT22;228;48.922;12.198;2024-01-10T12:59:11;13.80;28.80
484;DHT22;228;48.922;12.198;2024-01-10T13:01:38;13.70;29.30
484;DHT22;228;48.922;12.198;2024-01-10T13:04:04;15.00;28.70
484;DHT22;228;48.922;12.198;2024-01-10T13:06:30;15.20;26.70
484;DHT22;228;48.922;12.198;2024-01-10T13:08:56;15.50;26.90
484;DHT22;228;48.922;12.198;2024-01-10T13:11:24;14.60;26.90
484;DHT22;228;48.922;12.198;2024-01-10T13:13:50;15.10;27.80
484;DHT22;228;48.922;12.198;2024-01-10T13:16:16;15.00;26.90
484;DHT22;228;48.922;12.198;2024-01-10T13:18:42;14.70;26.70
484;DHT22;228;48.922;12.198;2024-01-10T13:21:08;14.50;28.00
484;DHT22;228;48.922;12.198;2024-01-10T13:23:36;14.20;27.90
484;DHT22;228;48.922;12.198;2024-01-10T13:26:03;15.60;27.80
484;DHT22;228;48.922;12.198;2024-01-10T13:28:29;16.90;26.70
484;DHT22;228;48.922;12.198;2024-01-10T13:30:56;17.90;25.70
484;DHT22;228;48.922;12.198;2024-01-10T13:33:22;18.00;25.00
484;DHT22;228;48.922;12.198;2024-01-10T13:35:48;17.70;25.00
484;DHT22;228;48.922;12.198;2024-01-10T13:38:16;16.00;25.40
484;DHT22;228;48.922;12.198;2024-01-10T13:40:41;14.50;26.60
484;DHT22;228;48.922;12.198;2024-01-10T13:43:08;13.30;28.50
484;DHT22;228;48.922;12.198;2024-01-10T13:45:34;12.50;29.50
484;DHT22;228;48.922;12.198;2024-01-10T13:48:01;12.10;29.80
484;DHT22;228;48.922;12.198;2024-01-10T13:50:27;12.60;30.40
484;DHT22;228;48.922;12.198;2024-01-10T13:52:54;12.80;29.10
484;DHT22;228;48.922;12.198;2024-01-10T13:55:20;11.10;29.70
484;DHT22;228;48.922;12.198;2024-01-10T13:57:46;11.80;31.20
484;DHT22;228;48.922;12.198;2024-01-10T14:00:12;14.20;29.60
484;DHT22;228;48.922;12.198;2024-01-10T14:02:44;16.30;27.60
484;DHT22;228;48.922;12.198;2024-01-10T14:05:10;17.60;26.20
484;DHT22;228;48.922;12.198;2024-01-10T14:07:36;18.20;24.90
484;DHT22;228;48.922;12.198;2024-01-10T14:10:04;18.30;24.60
484;DHT22;228;48.922;12.198;2024-01-10T14:12:30;18.10;24.80
484;DHT22;228;48.922;12.198;2024-01-10T14:14:57;17.20;25.30
484;DHT22;228;48.922;12.198;2024-01-10T14:17:25;17.00;25.60
484;DHT22;228;48.922;12.198;2024-01-10T14:19:52;16.90;25.50
484;DHT22;228;48.922;12.198;2024-01-10T14:22:18;16.50;25.80
484;DHT22;228;48.922;12.198;2024-01-10T14:24:44;15.00;25.60
484;DHT22;228;48.922;12.198;2024-01-10T14:27:10;14.10;27.70
484;DHT22;228;48.922;12.198;2024-01-10T14:29:36;13.70;28.30
484;DHT22;228;48.922;12.198;2024-01-10T14:32:03;13.30;28.30
484;DHT22;228;48.922;12.198;2024-01-10T14:34:29;12.30;28.70
484;DHT22;228;48.922;12.198;2024-01-10T14:36:55;11.00;30.20
484;DHT22;228;48.922;12.198;2024-01-10T14:39:21;10.40;31.80
484;DHT22;228;48.922;12.198;2024-01-10T14:41:48;10.30;32.70
484;DHT22;228;48.922;12.198;2024-01-10T14:44:17;10.10;33.10
484;DHT22;228;48.922;12.198;2024-01-10T14:46:43;9.10;34.80
484;DHT22;228;48.922;12.198;2024-01-10T14:49:09;9.00;35.00
484;DHT22;228;48.922;12.198;2024-01-10T14:51:35;8.10;36.90
484;DHT22;228;48.922;12.198;2024-01-10T14:54:01;7.40;38.00
484;DHT22;228;48.922;12.198;2024-01-10T14:56:29;6.80;39.50
484;DHT22;228;48.922;12.198;2024-01-10T14:58:55;5.90;41.60
484;DHT22;228;48.922;12.198;2024-01-10T15:01:21;5.40;43.10
484;DHT22;228;48.922;12.198;2024-01-10T15:03:47;5.20;45.30
484;DHT22;228;48.922;12.198;2024-01-10T15:06:13;4.90;45.50
484;DHT22;228;48.922;12.198;2024-01-10T15:08:43;4.70;46.20
484;DHT22;228;48.922;12.198;2024-01-10T15:11:09;4.40;47.50
484;DHT22;228;48.922;12.198;2024-01-10T15:13:41;4.00;49.30
484;DHT22;228;48.922;12.198;2024-01-10T15:16:08;3.90;49.80
484;DHT22;228;48.922;12.198;2024-01-10T15:18:34;3.80;50.30
484;DHT22;228;48.922;12.198;2024-01-10T15:21:00;3.70;50.50
484;DHT22;228;48.922;12.198;2024-01-10T15:23:26;3.60;50.60
484;DHT22;228;48.922;12.198;2024-01-10T15:25:52;3.20;51.40
484;DHT22;228;48.922;12.198;2024-01-10T15:28:18;2.90;52.40
484;DHT22;228;48.922;12.198;2024-01-10T15:30:44;2.70;53.00
484;DHT22;228;48.922;12.198;2024-01-10T15:33:10;2.60;53.40
484;DHT22;228;48.922;12.198;2024-01-10T15:35:36;2.50;54.20
484;DHT22;228;48.922;12.198;2024-01-10T15:38:03;2.40;54.80
484;DHT22;228;48.922;12.198;2024-01-10T15:40:29;2.30;55.20
484;DHT22;228;48.922;12.198;2024-01-10T15:42:55;2.20;55.30
484;DHT22;228;48.922;12.198;2024-01-10T15:45:21;2.20;55.70
484;DHT22;228;48.922;12.198;2024-01-10T15:47:47;2.10;55.90
484;DHT22;228;48.922;12.198;2024-01-10T15:50:13;2.00;56.30
484;DHT22;228;48.922;12.198;2024-01-10T15:52:40;1.80;57.20
484;DHT22;228;48.922;12.198;2024-01-10T15:55:07;1.60;58.00
484;DHT22;228;48.922;12.198;2024-01-10T15:57:34;1.50;58.70
484;DHT22;228;48.922;12.198;2024-01-10T16:00:00;1.40;59.00
484;DHT22;228;48.922;12.198;2024-01-10T16:02:26;1.30;59.40
484;DHT22;228;48.922;12.198;2024-01-10T16:04:52;1.30;60.00
484;DHT22;228;48.922;12.198;2024-01-10T16:07:19;1.20;60.00
484;DHT22;228;48.922;12.198;2024-01-10T16:09:51;1.20;61.00
484;DHT22;228;48.922;12.198;2024-01-10T16:12:17;1.10;61.20
484;DHT22;228;48.922;12.198;2024-01-10T16:14:43;1.00;61.60
484;DHT22;228;48.922;12.198;2024-01-10T16:17:09;0.50;63.00
484;DHT22;228;48.922;12.198;2024-01-10T16:19:35;0.20;65.40
484;DHT22;228;48.922;12.198;2024-01-10T16:22:01;0.40;65.60
484;DHT22;228;48.922;12.198;2024-01-10T16:24:27;0.40;65.60
484;DHT22;228;48.922;12.198;2024-01-10T16:26:53;0.50;65.20
484;DHT22;228;48.922;12.198;2024-01-10T16:29:19;0.50;65.10
484;DHT22;228;48.922;12.198;2024-01-10T16:31:46;0.20;65.30
484;DHT22;228;48.922;12.198;2024-01-10T16:34:12;0.20;65.80
484;DHT22;228;48.922;12.198;2024-01-10T16:36:38;-0.40;69.00
484;DHT22;228;48.922;12.198;2024-01-10T16:39:04;-0.50;70.40
484;DHT22;228;48.922;12.198;2024-01-10T16:41:30;-0.40;71.10
484;DHT22;228;48.922;12.198;2024-01-10T16:43:58;-0.50;72.10
484;DHT22;228;48.922;12.198;2024-01-10T16:46:24;-0.20;70.40
484;DHT22;228;48.922;12.198;2024-01-10T16:48:50;-0.10;69.80
484;DHT22;228;48.922;12.198;2024-01-10T16:51:16;0.00;69.30
484;DHT22;228;48.922;12.198;2024-01-10T16:53:42;0.00;69.20
484;DHT22;228;48.922;12.198;2024-01-10T16:56:08;-0.20;69.70
484;DHT22;228;48.922;12.198;2024-01-10T16:58:34;-0.30;70.50
484;DHT22;228;48.922;12.198;2024-01-10T17:01:00;-0.20;70.30
484;DHT22;228;48.922;12.198;2024-01-10T17:03:26;-0.60;71.80
484;DHT22;228;48.922;12.198;2024-01-10T17:05:53;-0.50;71.90
484;DHT22;228;48.922;12.198;2024-01-10T17:08:19;-0.40;71.40
484;DHT22;228;48.922;12.198;2024-01-10T17:10:48;-0.40;71.30
484;DHT22;228;48.922;12.198;2024-01-10T17:13:14;-0.40;72.20
484;DHT22;228;48.922;12.198;2024-01-10T17:15:40;-0.50;71.90
484;DHT22;228;48.922;12.198;2024-01-10T17:18:06;-0.30;71.50
484;DHT22;228;48.922;12.198;2024-01-10T17:20:33;-0.30;71.30
